Time;durP1;ratioP1;P1;durP2;ratioP2;P2;SDS_P1;SDS_P2;PMS_P1;PMS_P2;Temp;Humidity;BMP_temperature;BMP_pressure;BME280_temperature;BME280_humidity;BME280_pressure;Samples;Min_cycle;Max_cycle;Signal;HPM_P1;HPM_P2
2022/12/06 00:03:24;;;;;;;4.35;4.05;;;;;;;4.05;100.00;100059.72;10417009;28;20037;-73
2022/12/06 00:08:26;;;;;;;4.25;3.95;;;;;;;3.88;100.00;100055.47;10418158;28;20057;-73
2022/12/06 00:13:28;;;;;;;5.03;4.63;;;;;;;3.87;100.00;100053.75;10417238;28;20405;-73
2022/12/06 00:18:32;;;;;;;4.90;4.50;;;;;;;3.79;100.00;100053.78;10399284;28;20050;-73
2022/12/06 00:23:38;;;;;;;5.30;4.85;;;;;;;3.90;100.00;100053.75;10398560;28;20045;-73
2022/12/06 00:28:40;;;;;;;4.50;4.20;;;;;;;3.93;100.00;100053.72;10401062;28;20172;-74
2022/12/06 00:33:43;;;;;;;4.90;4.47;;;;;;;4.04;100.00;100060.63;10415940;28;20065;-73
2022/12/06 00:38:46;;;;;;;4.43;4.13;;;;;;;3.77;100.00;100064.19;10381533;28;20052;-74
2022/12/06 00:43:48;;;;;;;5.05;4.65;;;;;;;3.68;100.00;100055.56;10415367;28;20038;-74
2022/12/06 00:48:51;;;;;;;4.78;4.47;;;;;;;3.67;100.00;100053.81;10399947;28;20053;-74
2022/12/06 00:53:54;;;;;;;6.32;5.72;;;;;;;3.67;100.00;100046.88;10415267;28;20553;-74
2022/12/06 00:58:56;;;;;;;4.85;4.55;;;;;;;3.65;100.00;100043.44;10414679;28;20483;-74
2022/12/06 01:04:00;;;;;;;5.90;5.50;;;;;;;3.68;100.00;100052.97;10398747;28;20045;-75
2022/12/06 01:09:06;;;;;;;5.22;4.82;;;;;;;3.75;100.00;100054.66;10390560;28;20050;-74
2022/12/06 01:14:08;;;;;;;6.17;5.57;;;;;;;3.72;100.00;100058.16;10405782;28;20037;-75
2022/12/06 01:19:11;;;;;;;5.28;4.88;;;;;;;3.68;100.00;100055.56;10423937;28;20298;-74
2022/12/06 01:24:13;;;;;;;5.63;5.13;;;;;;;3.60;100.00;100041.72;10425494;28;20541;-72
2022/12/06 01:29:15;;;;;;;6.13;5.68;;;;;;;3.69;100.00;100032.16;10425979;28;20072;-74
2022/12/06 01:34:16;;;;;;;6.32;5.82;;;;;;;3.71;100.00;100027.81;10406231;28;20046;-74
2022/12/06 01:39:19;;;;;;;6.93;6.32;;;;;;;3.61;100.00;100020.91;10468289;22;20045;-73
2022/12/06 01:44:39;;;;;;;7.65;7.05;;;;;;;3.95;100.00;100013.84;10435087;28;20395;-74
2022/12/06 01:49:44;;;;;;;9.68;8.90;;;;;;;3.90;100.00;100006.94;10445685;28;20490;-73
2022/12/06 01:54:46;;;;;;;10.88;10.07;;;;;;;3.70;100.00;100001.81;10462895;28;20094;-73
2022/12/06 01:59:48;;;;;;;10.93;9.88;;;;;;;3.74;100.00;99994.00;10462396;28;20044;-73
2022/12/06 02:04:51;;;;;;;12.13;11.23;;;;;;;3.53;100.00;99984.56;10444236;28;20448;-73
2022/12/06 02:09:53;;;;;;;10.38;9.30;;;;;;;3.50;100.00;99978.53;10462162;28;20041;-73
2022/12/06 02:14:55;;;;;;;9.73;9.02;;;;;;;3.49;100.00;99972.44;10461667;28;20037;-73
2022/12/06 02:20:13;;;;;;;8.98;8.07;;;;;;;3.46;100.00;99969.88;10460435;28;20052;-73
2022/12/06 02:25:45;;;;;;;9.18;8.38;;;;;;;3.46;100.00;99961.22;10462426;28;20045;-73
2022/12/06 02:31:22;;;;;;;8.32;7.63;;;;;;;3.41;100.00;99960.34;10461176;28;20049;-74
2022/12/06 02:36:33;;;;;;;8.70;7.82;;;;;;;3.37;100.00;99956.06;10453063;28;20057;-73
2022/12/06 02:41:41;;;;;;;8.57;7.82;;;;;;;3.35;100.00;99944.81;10460326;28;20095;-73
2022/12/06 02:46:43;;;;;;;7.90;7.20;;;;;;;3.92;100.00;99942.78;10443268;28;20045;-73
2022/12/06 02:51:47;;;;;;;9.27;8.48;;;;;;;3.67;100.00;99937.69;10442871;28;20064;-73
2022/12/06 02:56:49;;;;;;;11.05;8.48;;;;;;;3.54;100.00;99938.63;10459912;28;20049;-74
2022/12/06 03:01:58;;;;;;;9.82;9.02;;;;;;;3.49;100.00;99941.25;10460160;28;20044;-73
2022/12/06 03:07:06;;;;;;;10.38;9.57;;;;;;;3.42;100.00;99929.19;10441832;28;20406;-73
2022/12/06 03:12:22;;;;;;;11.45;10.45;;;;;;;3.33;100.00;99928.38;10442302;28;20090;-73
2022/12/06 03:17:32;;;;;;;11.02;10.02;;;;;;;3.43;100.00;99937.84;10460083;28;20036;-73
2022/12/06 03:22:44;;;;;;;10.20;9.40;;;;;;;3.64;100.00;99936.88;10459032;28;20487;-72
2022/12/06 03:27:47;;;;;;;12.35;8.95;;;;;;;3.85;100.00;99923.75;10440403;28;20048;-73
2022/12/06 03:32:50;;;;;;;8.40;7.70;;;;;;;3.83;100.00;99925.50;10458685;28;20033;-71
2022/12/06 03:38:02;;;;;;;9.05;8.25;;;;;;;3.49;100.00;99923.06;10458787;28;20041;-74
2022/12/06 03:43:04;;;;;;;9.05;8.35;;;;;;;3.44;100.00;99919.63;10458079;28;20055;-74
2022/12/06 03:48:13;;;;;;;9.82;8.20;;;;;;;3.47;100.00;99916.16;10458361;28;20513;-73
2022/12/06 03:53:17;;;;;;;8.23;7.53;;;;;;;3.57;100.00;99912.66;10458616;28;20052;-73
2022/12/06 03:58:19;;;;;;;8.60;7.80;;;;;;;3.45;100.00;99911.00;10458369;28;20037;-73
2022/12/06 04:03:20;;;;;;;8.38;7.68;;;;;;;3.49;100.00;99911.81;10457434;28;20099;-72
2022/12/06 04:08:22;;;;;;;6.15;5.65;;;;;;;3.49;100.00;99910.06;10457506;28;20041;-74
2022/12/06 04:13:25;;;;;;;5.85;5.35;;;;;;;3.69;100.00;99906.53;10422834;28;20045;-73
2022/12/06 04:18:27;;;;;;;4.65;4.25;;;;;;;3.93;100.00;99908.94;10439225;28;20045;-73
2022/12/06 04:23:30;;;;;;;4.78;4.38;;;;;;;3.70;100.00;99914.31;10439317;28;20037;-73
2022/12/06 04:39:13;;;;;;;6.38;5.88;;;;;;;3.67;100.00;99898.72;10457779;28;20063;-73
2022/12/06 04:44:21;;;;;;;8.25;7.55;;;;;;;3.52;100.00;99891.88;10466451;28;20037;-73
2022/12/06 04:49:25;;;;;;;7.80;7.13;;;;;;;3.53;100.00;99893.59;10447524;28;20094;-73
2022/12/06 04:54:28;;;;;;;9.82;8.10;;;;;;;3.54;100.00;99892.75;10465420;28;20091;-73
2022/12/06 04:59:30;;;;;;;10.00;9.15;;;;;;;3.58;100.00;99885.78;10464502;28;20052;-73
2022/12/06 05:04:32;;;;;;;8.57;7.90;;;;;;;3.79;100.00;99895.19;10464734;28;20043;-73
2022/12/06 05:09:34;;;;;;;8.60;7.85;;;;;;;3.61;100.00;99882.31;10464097;28;20052;-74
2022/12/06 05:14:36;;;;;;;8.88;7.97;;;;;;;3.64;100.00;99883.16;10463811;28;20491;-73
2022/12/06 05:19:37;;;;;;;8.32;7.60;;;;;;;3.58;100.00;99882.31;10463901;28;20075;-73
2022/12/06 05:24:39;;;;;;;9.98;9.18;;;;;;;3.61;100.00;99884.91;10445422;28;20037;-73
2022/12/06 05:29:41;;;;;;;9.50;8.70;;;;;;;3.41;100.00;99885.88;10463766;28;20048;-74
2022/12/06 05:34:42;;;;;;;9.57;8.73;;;;;;;3.30;100.00;99877.28;10464081;28;20056;-75
2022/12/06 05:39:44;;;;;;;9.00;8.30;;;;;;;3.41;100.00;99883.28;10463062;28;20041;-73
2022/12/06 05:44:46;;;;;;;10.00;9.00;;;;;;;3.50;100.00;99883.25;10463166;28;20501;-73
2022/12/06 05:49:47;;;;;;;9.68;8.88;;;;;;;3.37;100.00;99881.59;10462169;28;20098;-74
2022/12/06 05:54:49;;;;;;;10.05;9.25;;;;;;;3.40;100.00;99876.34;10462441;28;20041;-73
2022/12/06 05:59:51;;;;;;;11.20;10.20;;;;;;;3.43;100.00;99880.69;10463312;28;20041;-73
2022/12/06 06:04:53;;;;;;;11.25;10.18;;;;;;;3.27;100.00;99875.53;10463182;28;20501;-73
2022/12/06 06:09:54;;;;;;;11.88;10.82;;;;;;;3.35;100.00;99872.91;10462305;28;20041;-73
2022/12/06 06:14:56;;;;;;;12.88;11.57;;;;;;;3.40;100.00;99872.88;10461795;28;20045;-74
2022/12/06 06:19:58;;;;;;;13.00;11.93;;;;;;;3.19;100.00;99871.28;10461194;28;20049;-74
2022/12/06 06:25:01;;;;;;;16.05;14.55;;;;;;;3.21;100.00;99866.94;10460959;28;20036;-73
2022/12/06 06:30:09;;;;;;;13.60;12.52;;;;;;;3.15;100.00;99866.97;10444244;28;20056;-74
2022/12/06 06:35:11;;;;;;;15.18;13.68;;;;;;;3.13;100.00;99874.75;10461483;28;20044;-73
2022/12/06 06:40:13;;;;;;;14.98;13.35;;;;;;;3.13;100.00;99868.69;10461384;28;20518;-72
2022/12/06 06:45:15;;;;;;;15.52;14.10;;;;;;;3.28;100.00;99879.88;10461369;28;20471;-74
2022/12/06 06:50:17;;;;;;;13.18;11.95;;;;;;;3.34;100.00;99878.13;10460299;28;20118;-74
2022/12/06 06:55:19;;;;;;;12.20;10.80;;;;;;;3.51;100.00;99892.75;10460456;28;20120;-74
2022/12/06 07:00:21;;;;;;;12.75;11.68;;;;;;;3.28;100.00;99885.09;10442337;28;20080;-74
2022/12/06 07:05:23;;;;;;;11.70;10.10;;;;;;;3.43;100.00;99891.94;10460778;28;20041;-72
2022/12/06 07:10:26;;;;;;;10.77;9.70;;;;;;;3.33;100.00;99887.66;10460541;28;20059;-73
2022/12/06 07:15:27;;;;;;;11.02;10.02;;;;;;;3.35;100.00;99883.31;10459712;28;20119;-73
2022/12/06 07:20:29;;;;;;;10.43;9.57;;;;;;;3.48;100.00;99886.72;10460229;28;20387;-74
2022/12/06 07:25:31;;;;;;;12.15;10.98;;;;;;;3.29;100.00;99891.13;10459270;28;20045;-73
2022/12/06 07:30:33;;;;;;;13.07;11.98;;;;;;;3.24;100.00;99885.97;10459828;28;20044;-74
2022/12/06 07:35:35;;;;;;;16.15;14.77;;;;;;;3.13;100.00;99890.31;10459820;28;20049;-74
2022/12/06 07:41:01;;;;;;;12.38;11.48;;;;;;;3.41;100.00;99882.41;10455053;22;1256063;-74
2022/12/06 07:46:10;;;;;;;10.98;10.05;;;;;;;3.23;100.00;99892.03;10468587;28;20046;-74
2022/12/06 07:51:12;;;;;;;11.07;9.93;;;;;;;3.24;100.00;99883.38;10500659;28;20060;-74
2022/12/06 07:56:14;;;;;;;9.95;9.20;;;;;;;3.45;100.00;99885.00;10482453;28;20041;-74
2022/12/06 08:01:16;;;;;;;12.10;11.20;;;;;;;3.30;100.00;99887.66;10499716;28;20048;-74
2022/12/06 08:06:18;;;;;;;11.20;10.10;;;;;;;3.35;100.00;99883.31;10502057;28;20036;-75
2022/12/06 08:11:21;;;;;;;12.80;11.45;;;;;;;3.41;100.00;99888.50;10498625;28;20040;-74
2022/12/06 08:16:23;;;;;;;12.15;11.15;;;;;;;3.29;100.00;99889.41;10481352;28;20040;-74
2022/12/06 08:21:25;;;;;;;11.27;10.30;;;;;;;3.54;100.00;99891.84;10481342;28;20406;-74
2022/12/06 08:26:27;;;;;;;14.40;10.15;;;;;;;3.48;100.00;99884.09;10499976;28;20044;-74
2022/12/06 08:31:29;;;;;;;11.55;10.55;;;;;;;3.41;100.00;99890.19;10498231;28;20102;-74
2022/12/06 08:36:32;;;;;;;11.55;10.55;;;;;;;3.48;100.00;99884.09;10498937;28;20449;-74
2022/12/06 08:46:54;;;;;;;11.30;10.35;;;;;;;3.46;100.00;99880.66;10499301;28;20040;-75
2022/12/06 08:51:58;;;;;;;11.07;10.18;;;;;;;3.51;100.00;99884.09;10500682;28;20048;-75
2022/12/06 08:57:00;;;;;;;11.90;10.93;;;;;;;3.39;100.00;99877.22;10498351;28;20049;-74
2022/12/06 09:02:01;;;;;;;11.38;10.35;;;;;;;3.52;100.00;99878.88;10480887;28;20044;-74
2022/12/06 09:07:03;;;;;;;12.38;11.30;;;;;;;3.21;100.00;99882.50;10480152;28;20094;-74
2022/12/06 09:12:12;;;;;;;11.57;10.63;;;;;;;3.58;100.00;99882.31;10500989;28;20040;-74
2022/12/06 09:17:14;;;;;;;11.48;10.57;;;;;;;3.36;100.00;99876.38;10499345;28;20037;-74
2022/12/06 09:22:16;;;;;;;12.27;11.38;;;;;;;3.41;100.00;99880.69;10480961;28;20047;-74
2022/12/06 09:27:18;;;;;;;12.38;11.32;;;;;;;3.31;100.00;99871.19;10501739;28;20044;-74
2022/12/06 09:32:20;;;;;;;13.40;12.38;;;;;;;3.45;100.00;99869.41;10490577;28;20059;-75
2022/12/06 09:37:22;;;;;;;13.10;11.82;;;;;;;3.53;100.00;99869.34;10471470;28;20045;-75
2022/12/06 09:42:32;;;;;;;16.63;12.48;;;;;;;3.42;100.00;99871.16;10505048;28;20048;-74
2022/12/06 09:47:46;;;;;;;12.15;11.10;;;;;;;3.43;98.82;99857.28;10505028;28;20041;-74
2022/12/06 09:53:10;;;;;;;11.80;10.80;;;;;;;3.47;98.72;99861.59;10487996;28;20040;-74
2022/12/06 09:58:27;;;;;;;9.52;8.73;;;;;;;3.76;95.32;99845.78;10488307;28;20448;-74
2022/12/06 10:03:39;;;;;;;10.43;9.63;;;;;;;3.76;95.85;99843.19;10504490;28;20090;-75
2022/12/06 10:08:58;;;;;;;12.15;11.15;;;;;;;3.56;97.20;99832.97;10502733;28;20090;-75
2022/12/06 10:14:12;;;;;;;10.07;9.27;;;;;;;3.54;98.32;99832.97;10485938;28;20040;-74
2022/12/06 10:19:55;;;;;;;11.70;10.80;;;;;;;3.45;100.00;99825.25;10505482;28;20071;-74
2022/12/06 10:25:12;;;;;;;11.95;11.05;;;;;;;3.43;100.00;99824.38;10485595;28;20416;-75
2022/12/06 10:30:15;;;;;;;12.20;11.20;;;;;;;3.19;100.00;99822.78;10502898;28;20441;-73
2022/12/06 10:35:41;;;;;;;11.55;10.65;;;;;;;3.16;100.00;99814.16;10502978;28;20040;-73
2022/12/06 10:41:01;;;;;;;11.33;10.53;;;;;;;3.26;100.00;99818.41;10504469;28;20059;-74
2022/12/06 10:51:41;;;;;;;10.00;9.30;;;;;;;3.57;99.22;99802.63;10502594;28;20041;-74
2022/12/06 10:56:44;;;;;;;10.07;9.25;;;;;;;3.53;99.37;99813.03;10503004;28;20367;-74
2022/12/06 11:01:47;;;;;;;9.57;8.88;;;;;;;3.41;100.00;99804.44;10504185;28;20046;-75
2022/12/06 11:06:54;;;;;;;9.23;8.43;;;;;;;3.60;98.34;99800.00;10500065;28;20144;-75
2022/12/06 11:11:56;;;;;;;8.98;8.38;;;;;;;3.56;96.69;99803.50;10502960;28;20045;-74
2022/12/06 11:17:22;;;;;;;10.05;9.25;;;;;;;3.52;97.89;99798.31;10502599;28;20539;-75
2022/12/06 11:22:39;;;;;;;10.38;9.57;;;;;;;3.55;96.48;99794.84;10485672;28;20082;-73
2022/12/06 11:27:50;;;;;;;10.15;9.32;;;;;;;3.48;97.79;99799.22;10500676;28;20235;-75
2022/12/06 11:32:52;;;;;;;9.70;9.00;;;;;;;3.64;94.42;99801.72;10500873;28;20041;-74
2022/12/06 11:38:01;;;;;;;11.05;10.25;;;;;;;3.38;96.83;99801.91;10499962;28;20043;-74
2022/12/06 11:43:07;;;;;;;12.45;11.45;;;;;;;3.48;95.78;99791.41;10484061;28;20082;-73
2022/12/06 11:48:16;;;;;;;11.13;10.27;;;;;;;3.54;94.50;99790.50;10481991;28;20044;-73
2022/12/06 11:53:26;;;;;;;10.65;9.75;;;;;;;3.44;95.44;99779.31;10483357;28;20051;-73
2022/12/06 11:58:45;;;;;;;10.10;9.30;;;;;;;3.12;95.74;99782.13;10504936;28;20040;-73
2022/12/06 12:03:47;;;;;;;11.05;10.20;;;;;;;3.10;95.82;99780.41;10502547;28;20044;-73
2022/12/06 12:09:04;;;;;;;10.75;9.95;;;;;;;3.04;97.42;99778.69;10499618;28;20064;-73
2022/12/06 12:14:16;;;;;;;9.68;8.93;;;;;;;3.21;95.89;99765.63;10480846;28;20044;-73
2022/12/06 12:19:39;;;;;;;10.27;9.38;;;;;;;3.35;93.86;99769.00;10499477;28;20052;-73
2022/12/06 12:24:47;;;;;;;9.57;8.57;;;;;;;3.33;95.68;99765.56;10499544;28;20036;-73
2022/12/06 12:30:26;;;;;;;8.95;8.15;;;;;;;3.48;93.16;99757.63;10499283;28;20140;-73
2022/12/06 12:35:28;;;;;;;9.45;8.65;;;;;;;3.44;93.15;99755.94;10481680;28;20448;-73
2022/12/06 12:40:39;;;;;;;8.85;8.13;;;;;;;3.47;93.03;99755.91;10501775;28;20037;-73
2022/12/06 12:46:02;;;;;;;10.02;9.18;;;;;;;3.09;95.94;99748.38;10498908;28;20047;-73
2022/12/06 12:51:36;;;;;;;10.77;9.77;;;;;;;3.44;92.95;99755.06;10484615;28;20047;-73
2022/12/06 12:56:38;;;;;;;10.05;9.25;;;;;;;3.18;95.38;99750.06;10481198;28;20041;-73
2022/12/06 13:01:57;;;;;;;10.02;9.15;;;;;;;3.09;96.06;99752.72;10483864;28;20056;-73
2022/12/06 13:07:06;;;;;;;9.88;9.07;;;;;;;3.20;94.22;99759.56;10506735;28;20090;-74
2022/12/06 13:12:33;;;;;;;11.82;10.82;;;;;;;3.08;94.83;99754.44;10491710;28;20127;-73
2022/12/06 13:17:36;;;;;;;11.83;10.67;;;;;;;3.28;93.05;99756.94;10506288;28;20033;-73
2022/12/06 13:22:44;;;;;;;10.95;10.05;;;;;;;3.28;93.70;99749.13;10506672;28;20051;-74
2022/12/06 13:27:51;;;;;;;15.05;12.23;;;;;;;3.14;95.89;99736.22;10487900;28;20449;-72
2022/12/06 13:32:55;;;;;;;;;;;;;;;3.17;95.06;99735.34;10475577;28;20052;-75
2022/12/06 13:38:22;;;;;;;14.77;13.57;;;;;;;2.94;97.83;99744.13;10487496;28;19996;-73
2022/12/06 13:43:27;;;;;;;13.68;12.48;;;;;;;2.75;99.50;99738.19;10480712;23;20055;-76
2022/12/06 13:48:32;;;;;;;12.75;11.70;;;;;;;2.82;99.91;99732.97;10481906;28;20047;-78
2022/12/06 13:54:03;;;;;;;13.30;12.15;;;;;;;2.86;99.88;99739.84;10510950;28;20040;-77
2022/12/06 13:59:10;;;;;;;11.85;10.80;;;;;;;2.76;99.48;99739.91;10512995;28;20046;-78
2022/12/06 14:04:27;;;;;;;12.30;11.25;;;;;;;2.76;99.27;99742.50;10494476;28;20043;-77
2022/12/06 14:10:06;;;;;;;12.70;11.70;;;;;;;2.74;99.77;99736.44;10506797;28;20028;-77
2022/12/06 14:15:16;;;;;;;12.38;11.23;;;;;;;2.95;97.93;99734.63;10338381;28;20058;-77
2022/12/06 14:20:22;;;;;;;12.30;11.25;;;;;;;2.59;100.00;99739.13;10322210;28;20074;-76
2022/12/06 14:25:27;;;;;;;11.43;10.52;;;;;;;2.56;100.00;99743.44;10337443;28;20106;-77
2022/12/06 14:30:29;;;;;;;11.30;10.30;;;;;;;2.71;98.66;99740.81;10340939;28;20054;-77
2022/12/06 14:35:34;;;;;;;11.10;10.20;;;;;;;2.81;97.33;99737.28;10341654;28;20089;-77
2022/12/06 14:46:10;;;;;;;10.10;9.30;;;;;;;2.67;97.50;99736.50;10338486;28;20053;-77
2022/12/06 14:51:19;;;;;;;9.80;8.95;;;;;;;2.57;97.49;99745.16;10466082;28;20489;-74
2022/12/06 14:56:29;;;;;;;9.55;8.65;;;;;;;2.61;96.84;99736.50;10485524;28;20456;-76
2022/12/06 15:01:31;;;;;;;9.73;8.93;;;;;;;2.66;96.74;99748.63;10502974;28;20067;-76
2022/12/06 15:06:35;;;;;;;8.77;8.05;;;;;;;2.76;96.49;99749.44;10502186;28;20033;-76
2022/12/06 15:16:59;;;;;;;8.85;8.23;;;;;;;2.74;96.74;99744.22;10502225;28;20041;-76
2022/12/06 15:22:02;;;;;;;10.57;9.80;;;;;;;2.63;97.72;99743.44;10505107;28;20406;-77
2022/12/06 15:27:04;;;;;;;11.20;10.05;;;;;;;2.67;98.80;99745.16;10503868;28;20533;-77
2022/12/06 15:32:12;;;;;;;10.07;9.20;;;;;;;2.61;99.18;99741.69;10509707;28;20055;-79
2022/12/06 15:37:15;;;;;;;8.73;8.10;;;;;;;2.56;98.53;99738.25;10491977;28;20037;-78
2022/12/06 15:42:37;;;;;;;7.93;7.32;;;;;;;2.42;100.00;99736.59;10507983;28;20051;-78
2022/12/06 15:47:39;;;;;;;7.20;6.70;;;;;;;2.63;100.00;99737.38;10494167;28;20580;-79
2022/12/06 15:52:41;;;;;;;9.05;8.35;;;;;;;2.58;100.00;99733.94;10519604;28;20040;-80
2022/12/06 15:57:43;;;;;;;8.68;7.97;;;;;;;2.50;100.00;99733.97;10517224;28;20044;-78
2022/12/06 16:02:48;;;;;;;9.07;8.38;;;;;;;2.38;100.00;99737.47;10512401;28;20079;-78
2022/12/06 16:07:56;;;;;;;8.52;7.93;;;;;;;2.23;100.00;99740.13;10494246;28;20044;-80
2022/12/06 16:18:24;;;;;;;7.93;7.35;;;;;;;2.14;100.00;99738.41;10510805;28;20397;-79
2022/12/06 16:29:24;;;;;;;7.57;6.85;;;;;;;2.13;100.00;99741.00;10510578;28;20493;-79
2022/12/06 16:34:29;;;;;;;6.75;6.20;;;;;;;2.22;100.00;99741.84;10492048;28;20044;-78
2022/12/06 16:39:33;;;;;;;5.78;5.38;;;;;;;2.38;100.00;99740.06;10490993;28;20151;-78
2022/12/06 16:44:49;;;;;;;5.80;5.40;;;;;;;2.27;100.00;99731.47;10508469;28;20467;-78
2022/12/06 16:49:51;;;;;;;5.95;5.47;;;;;;;2.20;100.00;99734.94;10488322;28;20052;-78
2022/12/06 16:54:53;;;;;;;6.25;5.85;;;;;;;2.22;100.00;99736.66;10506803;28;20059;-77
2022/12/06 16:59:55;;;;;;;5.38;4.97;;;;;;;2.13;100.00;99741.00;10505878;28;20040;-78
2022/12/06 17:05:06;;;;;;;5.68;5.22;;;;;;;2.23;100.00;99735.78;10504946;28;20041;-78
2022/12/06 17:10:08;;;;;;;5.35;4.95;;;;;;;2.18;100.00;99731.50;10513814;28;20124;-78
2022/12/06 17:15:15;;;;;;;6.13;5.63;;;;;;;2.05;100.00;99729.78;10486922;28;20509;-78
2022/12/06 17:20:24;;;;;;;5.30;4.80;;;;;;;2.01;100.00;99721.16;10490264;28;20094;-79
2022/12/06 17:25:26;;;;;;;4.78;4.38;;;;;;;2.02;100.00;99738.44;10490975;28;20094;-79
2022/12/06 17:30:28;;;;;;;5.30;4.90;;;;;;;1.90;100.00;99728.06;10507765;28;20044;-77
2022/12/06 17:35:30;;;;;;;4.93;4.53;;;;;;;2.14;100.00;99732.38;10489274;28;20044;-77
2022/12/06 17:40:32;;;;;;;5.13;4.63;;;;;;;1.97;100.00;99722.88;10489073;28;20068;-78
2022/12/06 17:45:34;;;;;;;4.95;4.43;;;;;;;2.02;100.00;99733.25;10512376;28;20101;-79
2022/12/06 17:50:36;;;;;;;4.95;4.55;;;;;;;1.90;100.00;99733.25;10500346;28;20101;-81
2022/12/06 17:55:38;;;;;;;4.32;3.85;;;;;;;1.92;100.00;99736.72;10522618;28;20350;-79
2022/12/06 18:00:40;;;;;;;4.10;3.80;;;;;;;1.89;100.00;99731.53;10522317;28;20047;-79
2022/12/06 18:05:43;;;;;;;3.95;3.65;;;;;;;1.93;100.00;99728.94;10504167;28;20052;-80
2022/12/06 18:10:45;;;;;;;4.28;3.22;;;;;;;1.89;100.00;99736.72;10488918;28;20140;-79
2022/12/06 18:15:47;;;;;;;3.70;3.40;;;;;;;1.75;100.00;99735.00;10480584;28;20100;-78
2022/12/06 18:20:49;;;;;;;5.53;2.90;;;;;;;1.87;100.00;99739.31;10496337;28;20050;-78
2022/12/06 18:25:51;;;;;;;2.58;2.35;;;;;;;2.01;100.00;99736.72;10515325;28;20442;-79
2022/12/06 18:30:52;;;;;;;2.22;2.08;;;;;;;1.94;100.00;99737.56;10497854;28;20072;-79
2022/12/06 18:35:54;;;;;;;8.70;3.03;;;;;;;1.84;100.00;99743.66;10514626;28;20094;-78
2022/12/06 18:41:10;;;;;;;4.00;3.70;;;;;;;1.87;100.00;99744.50;10480896;28;20494;-78
2022/12/06 18:46:14;;;;;;;3.28;3.05;;;;;;;1.79;100.00;99746.25;10503139;28;20371;-80
2022/12/06 18:51:19;;;;;;;2.25;2.00;;;;;;;1.89;100.00;99744.50;10519236;28;20139;-79
2022/12/06 18:56:23;;;;;;;2.05;1.95;;;;;;;1.80;100.00;99742.78;10479294;28;20048;-80
2022/12/06 19:01:30;;;;;;;2.40;2.10;;;;;;;1.89;100.00;99753.13;10491422;28;20060;-80
2022/12/06 19:06:33;;;;;;;;;;;;;;;1.85;100.00;99745.38;10510739;28;20048;-79
2022/12/06 19:11:40;;;;;;;2.80;1.63;;;;;;;1.90;100.00;99747.06;10483283;28;19924;-78
2022/12/06 19:16:45;;;;;;;2.40;2.20;;;;;;;1.81;100.00;99751.41;10516754;28;20044;-78
2022/12/06 19:21:49;;;;;;;3.30;2.70;;;;;;;1.89;100.00;99739.31;10498837;28;20494;-80
2022/12/06 19:26:53;;;;;;;4.47;2.00;;;;;;;1.92;100.00;99745.38;10516734;28;20540;-79
2022/12/06 19:31:55;;;;;;;2.17;1.90;;;;;;;1.93;100.00;99751.41;10495005;28;20395;-78
2022/12/06 19:36:57;;;;;;;2.40;1.80;;;;;;;1.81;100.00;99748.81;10518589;28;20045;-78
2022/12/06 19:47:19;;;;;;;2.03;1.80;;;;;;;1.81;100.00;99748.81;10500676;28;20036;-74
2022/12/06 19:52:21;;;;;;;1.92;1.83;;;;;;;1.63;100.00;99747.09;10499861;28;20048;-73
2022/12/06 19:57:29;;;;;;;2.03;1.80;;;;;;;1.84;100.00;99751.41;10481453;28;20040;-73
2022/12/06 20:02:31;;;;;;;1.60;1.50;;;;;;;1.91;100.00;99741.06;10481795;28;20040;-74
2022/12/06 20:07:33;;;;;;;1.60;1.50;;;;;;;1.80;100.00;99753.16;10500287;28;20040;-73
2022/12/06 20:12:34;;;;;;;1.90;1.75;;;;;;;1.81;100.00;99749.69;10499472;28;20045;-74
2022/12/06 20:17:36;;;;;;;2.17;1.98;;;;;;;1.81;100.00;99754.00;10498722;28;20049;-73
2022/12/06 20:22:38;;;;;;;2.60;2.40;;;;;;;1.73;100.00;99752.31;10499199;28;20045;-73
2022/12/06 20:27:52;;;;;;;2.00;1.90;;;;;;;1.76;100.00;99741.06;10498888;28;20453;-73
2022/12/06 20:32:53;;;;;;;2.28;2.10;;;;;;;1.73;100.00;99741.06;10480766;28;20452;-74
2022/12/06 20:37:55;;;;;;;2.45;2.25;;;;;;;1.72;100.00;99731.56;10498462;28;20045;-72
2022/12/06 20:42:57;;;;;;;2.42;2.22;;;;;;;1.71;100.00;99729.84;10498345;28;20051;-74
2022/12/06 20:47:59;;;;;;;2.78;2.58;;;;;;;1.61;100.00;99736.75;10498431;28;20044;-73
2022/12/06 20:53:01;;;;;;;3.25;2.95;;;;;;;1.68;100.00;99738.50;10498050;28;20395;-73
2022/12/06 20:58:02;;;;;;;3.65;3.35;;;;;;;1.65;100.00;99735.03;10498066;28;20045;-74
2022/12/06 21:03:04;;;;;;;3.65;3.33;;;;;;;1.75;100.00;99731.56;10479703;28;20053;-74
2022/12/06 21:08:06;;;;;;;3.03;2.83;;;;;;;1.71;100.00;99738.47;10498938;28;20040;-74
2022/12/06 21:13:08;;;;;;;2.28;2.13;;;;;;;1.98;100.00;99734.13;10497933;28;20074;-72
2022/12/06 21:18:09;;;;;;;2.40;2.20;;;;;;;1.81;100.00;99736.72;10498876;28;20044;-74
2022/12/06 21:23:11;;;;;;;2.60;2.40;;;;;;;1.81;100.00;99739.31;10503668;28;20488;-74
2022/12/06 21:28:13;;;;;;;2.78;2.58;;;;;;;1.92;100.00;99731.53;10487801;28;20055;-73
2022/12/06 21:33:14;;;;;;;3.05;2.78;;;;;;;1.92;100.00;99735.00;10506131;28;20490;-74
2022/12/06 21:38:17;;;;;;;2.90;2.70;;;;;;;1.79;100.00;99735.00;10504709;28;20090;-73
2022/12/06 21:43:18;;;;;;;3.95;3.65;;;;;;;1.89;100.00;99737.59;10505364;28;20044;-74
2022/12/06 21:48:20;;;;;;;4.60;4.20;;;;;;;2.02;100.00;99746.19;10505175;28;20037;-73
2022/12/06 21:53:22;;;;;;;4.07;3.78;;;;;;;1.97;100.00;99738.44;10505990;28;20521;-74
2022/12/06 21:58:25;;;;;;;4.03;3.72;;;;;;;1.97;100.00;99740.16;10470153;28;20044;-74
2022/12/06 22:03:26;;;;;;;4.85;4.50;;;;;;;1.89;100.00;99732.41;10504097;28;20040;-73
2022/12/06 22:08:28;;;;;;;5.13;4.63;;;;;;;1.94;100.00;99735.84;10504764;28;20127;-73
2022/12/06 22:13:30;;;;;;;5.57;5.07;;;;;;;1.99;100.00;99733.25;10508041;28;20456;-74
2022/12/06 22:18:33;;;;;;;6.45;5.85;;;;;;;2.14;100.00;99730.63;10488911;28;20041;-72
2022/12/06 22:23:38;;;;;;;8.77;5.85;;;;;;;2.08;100.00;99716.81;10506212;28;20044;-74
2022/12/06 22:28:40;;;;;;;8.13;7.43;;;;;;;2.06;100.00;99724.59;10505016;28;20044;-72
2022/12/06 22:33:42;;;;;;;12.80;11.50;;;;;;;2.05;100.00;99722.03;10504628;28;20052;-73
2022/12/06 22:38:50;;;;;;;16.00;11.25;;;;;;;2.12;100.00;99724.56;10504791;28;20452;-72
2022/12/06 22:43:56;;;;;;;13.45;11.63;;;;;;;2.13;100.00;99728.06;10504719;28;20456;-72
2022/12/06 22:49:00;;;;;;;15.52;13.38;;;;;;;2.27;100.00;99723.69;10504668;28;20040;-73
2022/12/06 22:54:08;;;;;;;15.35;13.50;;;;;;;2.15;100.00;99724.56;10505833;28;20041;-72
2022/12/06 22:59:09;;;;;;;16.00;14.45;;;;;;;2.11;100.00;99727.19;10505847;28;20072;-72
2022/12/06 23:04:11;;;;;;;18.70;16.70;;;;;;;2.20;100.00;99727.16;10488998;28;20051;-72
2022/12/06 23:09:15;;;;;;;16.80;15.20;;;;;;;2.28;100.00;99728.00;10488433;28;20091;-73
2022/12/06 23:14:17;;;;;;;17.58;14.88;;;;;;;2.29;100.00;99719.34;10489748;28;20054;-72
2022/12/06 23:19:18;;;;;;;16.38;14.93;;;;;;;2.12;100.00;99719.38;10490154;28;20044;-71
2022/12/06 23:24:20;;;;;;;15.20;13.82;;;;;;;2.23;100.00;99717.63;10502891;28;20127;-73
2022/12/06 23:29:22;;;;;;;14.30;13.00;;;;;;;2.39;100.00;99725.34;10482943;28;20043;-73
2022/12/06 23:34:25;;;;;;;15.65;14.35;;;;;;;2.17;100.00;99724.56;10500799;28;20052;-73
2022/12/06 23:39:27;;;;;;;14.00;12.90;;;;;;;2.16;100.00;99715.06;10483069;28;20044;-73
2022/12/06 23:44:29;;;;;;;13.18;12.05;;;;;;;2.28;100.00;99723.66;10482698;28;20036;-72
2022/12/06 23:49:30;;;;;;;11.60;10.70;;;;;;;2.35;100.00;99714.16;10500449;28;20490;-72
2022/12/06 23:54:32;;;;;;;12.60;11.50;;;;;;;2.28;100.00;99721.06;10500033;28;20051;-72
2022/12/06 23:59:34;;;;;;;12.80;11.70;;;;;;;2.12;100.00;99716.78;10500284;28;20551;-72
